CheckWX is a tool to help pilots better visualize weather data.  It is not intended as a substitute for an official pre-flight weather briefing.

23:50:37 UTC

KLNK TAF
Lincoln Airport
Lincoln, Nebraska, USA
KLNK 012320Z 0200/0224 16017G28KT P6SM BKN250 FM020200 15014KT P6SM BKN250 FM021200 15012KT P6SM BKN025 FM021600 14012KT P6SM BKN010 FM021800 12011KT P6SM OVC008 FM022100 35014KT 6SM -RA OVC008

Apr-2@
00:00 UTC

Apr-2 @ 00:00 UTC

Apr-2@
02:00 UTC

Apr-2 @ 02:00 UTC

TAF KLNK 012320Z 0200/0224 16017G28KT P6SM BKN250
Wind
  • 160° at 17 KTS
  • {Gusting to 28 KTS
Cloud Levels
  • Broken at 25,000' AGL

Apr-2@
02:00 UTC

Apr-2 @ 02:00 UTC

Apr-2@
12:00 UTC

Apr-2 @ 12:00 UTC

FM020200 15014KT P6SM BKN250

From

From Standard forecast or significant change

Wind
  • 150° at 14 KTS
Cloud Levels
  • Broken at 25,000' AGL

Apr-2@
12:00 UTC

Apr-2 @ 12:00 UTC

Apr-2@
16:00 UTC

Apr-2 @ 16:00 UTC

FM021200 15012KT P6SM BKN025

From

From Standard forecast or significant change

Wind
  • 150° at 12 KTS
Cloud Levels
  • Broken at 2,500' AGL

Apr-2@
16:00 UTC

Apr-2 @ 16:00 UTC

Apr-2@
18:00 UTC

Apr-2 @ 18:00 UTC

FM021600 14012KT P6SM BKN010

From

From Standard forecast or significant change

Wind
  • 140° at 12 KTS
Cloud Levels
  • Broken at 1,000' AGL

Apr-2@
18:00 UTC

Apr-2 @ 18:00 UTC

Apr-2@
21:00 UTC

Apr-2 @ 21:00 UTC

FM021800 12011KT P6SM OVC008

From

From Standard forecast or significant change

Wind
  • 120° at 11 KTS
Cloud Levels
  • Overcast at 800' AGL

Apr-2@
21:00 UTC

Apr-2 @ 21:00 UTC

Apr-3@
00:00 UTC

Apr-3 @ 00:00 UTC

FM022100 35014KT 6SM -RA OVC008

From

From Standard forecast or significant change

Wind
  • 350° at 14 KTS
Conditions
Light Rain
Cloud Levels
  • Overcast at 800' AGL